sensor_id;sensor_type;location;lat;lon;timestamp;pressure;altitude;pressure_sealevel;temperature;humidity
61119;BME280;51448;51.660;5.824;2024-03-08T00:00:15;101779.50;;;3.28;88.75
61119;BME280;51448;51.660;5.824;2024-03-08T00:02:47;101771.56;;;3.27;88.73
61119;BME280;51448;51.660;5.824;2024-03-08T00:05:18;101772.41;;;3.27;88.61
61119;BME280;51448;51.660;5.824;2024-03-08T00:07:46;101774.78;;;3.24;88.60
61119;BME280;51448;51.660;5.824;2024-03-08T00:10:14;101764.63;;;3.19;88.76
61119;BME280;51448;51.660;5.824;2024-03-08T00:12:45;101767.09;;;3.21;88.64
61119;BME280;51448;51.660;5.824;2024-03-08T00:15:15;101760.59;;;3.22;88.44
61119;BME280;51448;51.660;5.824;2024-03-08T00:17:46;101762.47;;;3.21;88.33
61119;BME280;51448;51.660;5.824;2024-03-08T00:20:16;101761.31;;;3.17;88.33
61119;BME280;51448;51.660;5.824;2024-03-08T00:22:46;101764.31;;;3.15;88.23
61119;BME280;51448;51.660;5.824;2024-03-08T00:25:15;101771.06;;;3.13;88.15
61119;BME280;51448;51.660;5.824;2024-03-08T00:27:43;101769.06;;;3.08;88.41
61119;BME280;51448;51.660;5.824;2024-03-08T00:30:11;101757.25;;;3.03;88.55
61119;BME280;51448;51.660;5.824;2024-03-08T00:32:42;101763.78;;;3.02;88.66
61119;BME280;51448;51.660;5.824;2024-03-08T00:35:10;101755.25;;;2.98;88.55
61119;BME280;51448;51.660;5.824;2024-03-08T00:37:40;101753.50;;;2.92;88.66
61119;BME280;51448;51.660;5.824;2024-03-08T00:40:14;101752.13;;;2.89;88.69
61119;BME280;51448;51.660;5.824;2024-03-08T00:42:42;101745.25;;;2.87;88.56
61119;BME280;51448;51.660;5.824;2024-03-08T00:45:11;101740.31;;;2.84;88.77
61119;BME280;51448;51.660;5.824;2024-03-08T00:47:39;101743.19;;;2.77;88.91
61119;BME280;51448;51.660;5.824;2024-03-08T00:50:07;101733.59;;;2.75;88.92
61119;BME280;51448;51.660;5.824;2024-03-08T00:52:36;101734.66;;;2.74;88.99
61119;BME280;51448;51.660;5.824;2024-03-08T00:55:04;101736.22;;;2.70;89.07
61119;BME280;51448;51.660;5.824;2024-03-08T00:57:32;101728.22;;;2.63;89.28
61119;BME280;51448;51.660;5.824;2024-03-08T01:00:03;101723.84;;;2.62;89.34
61119;BME280;51448;51.660;5.824;2024-03-08T01:02:32;101717.78;;;2.60;89.38
61119;BME280;51448;51.660;5.824;2024-03-08T01:05:03;101715.56;;;2.57;89.34
61119;BME280;51448;51.660;5.824;2024-03-08T01:07:34;101714.97;;;2.55;89.16
61119;BME280;51448;51.660;5.824;2024-03-08T01:10:03;101714.38;;;2.53;89.17
61119;BME280;51448;51.660;5.824;2024-03-08T01:12:31;101709.41;;;2.50;89.19
61119;BME280;51448;51.660;5.824;2024-03-08T01:14:58;101707.75;;;2.49;89.39
61119;BME280;51448;51.660;5.824;2024-03-08T01:17:26;101705.28;;;2.47;89.21
61119;BME280;51448;51.660;5.824;2024-03-08T01:19:54;101697.03;;;2.42;89.44
61119;BME280;51448;51.660;5.824;2024-03-08T01:22:22;101698.34;;;2.40;89.51
61119;BME280;51448;51.660;5.824;2024-03-08T01:24:49;101691.72;;;2.35;89.27
61119;BME280;51448;51.660;5.824;2024-03-08T01:27:17;101684.28;;;2.31;89.75
61119;BME280;51448;51.660;5.824;2024-03-08T01:29:46;101682.63;;;2.30;90.09
61119;BME280;51448;51.660;5.824;2024-03-08T01:32:14;101680.16;;;2.28;89.71
61119;BME280;51448;51.660;5.824;2024-03-08T01:34:42;101676.59;;;2.28;89.86
61119;BME280;51448;51.660;5.824;2024-03-08T01:37:09;101687.75;;;2.26;89.88
61119;BME280;51448;51.660;5.824;2024-03-08T01:39:37;101677.09;;;2.25;89.75
61119;BME280;51448;51.660;5.824;2024-03-08T01:42:05;101688.00;;;2.25;89.60
61119;BME280;51448;51.660;5.824;2024-03-08T01:44:32;101679.81;;;2.25;89.91
61119;BME280;51448;51.660;5.824;2024-03-08T01:47:00;101686.09;;;2.25;89.68
61119;BME280;51448;51.660;5.824;2024-03-08T01:49:28;101676.28;;;2.24;89.69
61119;BME280;51448;51.660;5.824;2024-03-08T01:51:56;101680.06;;;2.23;89.71
61119;BME280;51448;51.660;5.824;2024-03-08T01:54:24;101674.84;;;2.22;89.83
61119;BME280;51448;51.660;5.824;2024-03-08T01:56:54;101673.19;;;2.21;89.56
61119;BME280;51448;51.660;5.824;2024-03-08T01:59:21;101677.47;;;2.17;89.65
61119;BME280;51448;51.660;5.824;2024-03-08T02:01:50;101670.38;;;2.16;89.66
61119;BME280;51448;51.660;5.824;2024-03-08T02:04:18;101667.66;;;2.16;89.51
61119;BME280;51448;51.660;5.824;2024-03-08T02:06:48;101661.63;;;2.14;89.80
61119;BME280;51448;51.660;5.824;2024-03-08T02:09:16;101659.16;;;2.12;89.85
61119;BME280;51448;51.660;5.824;2024-03-08T02:11:45;101654.75;;;2.11;89.52
61119;BME280;51448;51.660;5.824;2024-03-08T02:14:13;101650.41;;;2.10;89.77
61119;BME280;51448;51.660;5.824;2024-03-08T02:16:41;101652.28;;;2.09;89.66
61119;BME280;51448;51.660;5.824;2024-03-08T02:19:09;101646.84;;;2.09;89.74
61119;BME280;51448;51.660;5.824;2024-03-08T02:21:37;101652.75;;;2.06;89.42
61119;BME280;51448;51.660;5.824;2024-03-08T02:24:05;101641.56;;;2.03;89.36
61119;BME280;51448;51.660;5.824;2024-03-08T02:26:33;101641.81;;;2.01;89.64
61119;BME280;51448;51.660;5.824;2024-03-08T02:29:01;101630.31;;;1.99;89.64
61119;BME280;51448;51.660;5.824;2024-03-08T02:31:29;101638.22;;;2.01;89.73
61119;BME280;51448;51.660;5.824;2024-03-08T02:33:56;101631.38;;;1.98;89.67
61119;BME280;51448;51.660;5.824;2024-03-08T02:36:24;101634.09;;;1.98;89.66
61119;BME280;51448;51.660;5.824;2024-03-08T02:38:52;101622.88;;;1.95;89.68
61119;BME280;51448;51.660;5.824;2024-03-08T02:41:19;101624.44;;;1.91;89.63
61119;BME280;51448;51.660;5.824;2024-03-08T02:43:47;101631.75;;;1.90;89.80
61119;BME280;51448;51.660;5.824;2024-03-08T02:46:14;101624.09;;;1.87;89.83
61119;BME280;51448;51.660;5.824;2024-03-08T02:48:42;101626.25;;;1.85;89.78
61119;BME280;51448;51.660;5.824;2024-03-08T02:51:10;101620.19;;;1.83;90.01
61119;BME280;51448;51.660;5.824;2024-03-08T02:53:38;101614.19;;;1.81;89.78
61119;BME280;51448;51.660;5.824;2024-03-08T02:56:06;101609.22;;;1.78;89.82
61119;BME280;51448;51.660;5.824;2024-03-08T02:58:36;101606.75;;;1.76;89.89
61119;BME280;51448;51.660;5.824;2024-03-08T03:01:03;101608.63;;;1.76;89.75
61119;BME280;51448;51.660;5.824;2024-03-08T03:03:31;101606.38;;;1.73;90.08
61119;BME280;51448;51.660;5.824;2024-03-08T03:05:59;101611.25;;;1.71;89.89
61119;BME280;51448;51.660;5.824;2024-03-08T03:08:28;101603.34;;;1.69;89.82
61119;BME280;51448;51.660;5.824;2024-03-08T03:10:55;101600.00;;;1.67;90.09
61119;BME280;51448;51.660;5.824;2024-03-08T03:13:24;101599.44;;;1.65;90.24
61119;BME280;51448;51.660;5.824;2024-03-08T03:15:51;101599.19;;;1.67;90.19
61119;BME280;51448;51.660;5.824;2024-03-08T03:18:19;101599.19;;;1.67;90.04
61119;BME280;51448;51.660;5.824;2024-03-08T03:20:48;101594.25;;;1.64;89.92
61119;BME280;51448;51.660;5.824;2024-03-08T03:23:16;101590.09;;;1.61;89.97
61119;BME280;51448;51.660;5.824;2024-03-08T03:25:47;101588.94;;;1.57;89.93
61119;BME280;51448;51.660;5.824;2024-03-08T03:28:15;101591.91;;;1.55;89.89
61119;BME280;51448;51.660;5.824;2024-03-08T03:30:46;101588.09;;;1.56;90.28
61119;BME280;51448;51.660;5.824;2024-03-08T03:33:14;101590.25;;;1.54;90.39
61119;BME280;51448;51.660;5.824;2024-03-08T03:35:43;101588.59;;;1.53;90.11
61119;BME280;51448;51.660;5.824;2024-03-08T03:38:11;101584.22;;;1.52;89.98
61119;BME280;51448;51.660;5.824;2024-03-08T03:40:41;101592.59;;;1.51;89.96
61119;BME280;51448;51.660;5.824;2024-03-08T03:43:09;101580.34;;;1.48;90.49
61119;BME280;51448;51.660;5.824;2024-03-08T03:45:39;101581.41;;;1.47;90.43
61119;BME280;51448;51.660;5.824;2024-03-08T03:48:07;101579.97;;;1.45;90.31
61119;BME280;51448;51.660;5.824;2024-03-08T03:50:39;101575.84;;;1.42;90.03
61119;BME280;51448;51.660;5.824;2024-03-08T03:53:08;101575.25;;;1.40;90.33
61119;BME280;51448;51.660;5.824;2024-03-08T03:55:38;101568.41;;;1.38;90.01
61119;BME280;51448;51.660;5.824;2024-03-08T03:58:08;101576.81;;;1.36;90.28
61119;BME280;51448;51.660;5.824;2024-03-08T04:00:38;101577.88;;;1.35;90.10
61119;BME280;51448;51.660;5.824;2024-03-08T04:03:06;101573.50;;;1.34;90.36
61119;BME280;51448;51.660;5.824;2024-03-08T04:05:36;101574.56;;;1.33;90.49
61119;BME280;51448;51.660;5.824;2024-03-08T04:08:04;101568.56;;;1.31;90.41
61119;BME280;51448;51.660;5.824;2024-03-08T04:10:31;101563.13;;;1.31;90.15
61119;BME280;51448;51.660;5.824;2024-03-08T04:12:59;101559.22;;;1.27;90.19
61119;BME280;51448;51.660;5.824;2024-03-08T04:15:26;101554.25;;;1.24;90.25
61119;BME280;51448;51.660;5.824;2024-03-08T04:17:54;101559.13;;;1.22;90.18
61119;BME280;51448;51.660;5.824;2024-03-08T04:20:22;101552.84;;;1.21;90.00
61119;BME280;51448;51.660;5.824;2024-03-08T04:22:50;101553.91;;;1.20;90.28
61119;BME280;51448;51.660;5.824;2024-03-08T04:25:17;101551.41;;;1.19;90.12
61119;BME280;51448;51.660;5.824;2024-03-08T04:27:45;101551.66;;;1.17;90.37
61119;BME280;51448;51.660;5.824;2024-03-08T04:30:14;101540.22;;;1.15;90.10
61119;BME280;51448;51.660;5.824;2024-03-08T04:32:42;101540.44;;;1.14;90.13
61119;BME280;51448;51.660;5.824;2024-03-08T04:35:10;101547.56;;;1.15;90.53
61119;BME280;51448;51.660;5.824;2024-03-08T04:37:40;101546.72;;;1.14;90.13
61119;BME280;51448;51.660;5.824;2024-03-08T04:40:07;101544.22;;;1.13;90.36
61119;BME280;51448;51.660;5.824;2024-03-08T04:42:37;101540.69;;;1.12;90.38
61119;BME280;51448;51.660;5.824;2024-03-08T04:45:06;101539.28;;;1.10;90.31
61119;BME280;51448;51.660;5.824;2024-03-08T04:47:38;101534.88;;;1.09;90.34
61119;BME280;51448;51.660;5.824;2024-03-08T04:50:06;101534.06;;;1.08;90.59
61119;BME280;51448;51.660;5.824;2024-03-08T04:52:39;101533.84;;;1.10;90.37
61119;BME280;51448;51.660;5.824;2024-03-08T04:55:06;101534.88;;;1.09;90.60
61119;BME280;51448;51.660;5.824;2024-03-08T04:57:34;101534.31;;;1.07;90.38
61119;BME280;51448;51.660;5.824;2024-03-08T05:00:03;101517.19;;;1.06;90.71
61119;BME280;51448;51.660;5.824;2024-03-08T05:02:38;101523.44;;;1.07;90.56
61119;BME280;51448;51.660;5.824;2024-03-08T05:05:06;101522.63;;;1.06;90.76
61119;BME280;51448;51.660;5.824;2024-03-08T05:07:33;101523.44;;;1.07;90.60
61119;BME280;51448;51.660;5.824;2024-03-08T05:10:02;101522.88;;;1.04;90.76
61119;BME280;51448;51.660;5.824;2024-03-08T05:12:30;101519.31;;;1.04;90.91
61119;BME280;51448;51.660;5.824;2024-03-08T05:14:58;101513.88;;;1.04;90.77
61119;BME280;51448;51.660;5.824;2024-03-08T05:17:26;101513.06;;;1.03;90.72
61119;BME280;51448;51.660;5.824;2024-03-08T05:19:53;101516.81;;;1.02;90.96
61119;BME280;51448;51.660;5.824;2024-03-08T05:22:21;101509.50;;;1.03;90.72
61119;BME280;51448;51.660;5.824;2024-03-08T05:24:49;101505.94;;;1.02;91.12
61119;BME280;51448;51.660;5.824;2024-03-08T05:27:17;101510.34;;;1.03;91.08
61119;BME280;51448;51.660;5.824;2024-03-08T05:29:45;101510.34;;;1.03;91.04
61119;BME280;51448;51.660;5.824;2024-03-08T05:32:13;101508.66;;;1.02;90.93
61119;BME280;51448;51.660;5.824;2024-03-08T05:34:41;101509.16;;;0.99;90.98
61119;BME280;51448;51.660;5.824;2024-03-08T05:37:09;101509.75;;;1.01;91.17
61119;BME280;51448;51.660;5.824;2024-03-08T05:39:36;101496.41;;;1.00;91.10
61119;BME280;51448;51.660;5.824;2024-03-08T05:42:04;101501.00;;;0.99;90.75
61119;BME280;51448;51.660;5.824;2024-03-08T05:44:32;101500.75;;;1.01;90.84
61119;BME280;51448;51.660;5.824;2024-03-08T05:46:59;101495.56;;;0.99;90.76
61119;BME280;51448;51.660;5.824;2024-03-08T05:49:27;101502.31;;;0.97;91.09
61119;BME280;51448;51.660;5.824;2024-03-08T05:51:55;101490.16;;;0.99;90.88
61119;BME280;51448;51.660;5.824;2024-03-08T05:54:23;101490.38;;;0.98;90.98
61119;BME280;51448;51.660;5.824;2024-03-08T05:56:52;101497.69;;;0.97;90.37
61119;BME280;51448;51.660;5.824;2024-03-08T05:59:20;101493.56;;;0.95;91.26
61119;BME280;51448;51.660;5.824;2024-03-08T06:01:47;101487.88;;;0.96;90.95
61119;BME280;51448;51.660;5.824;2024-03-08T06:04:16;101491.22;;;0.98;90.87
61119;BME280;51448;51.660;5.824;2024-03-08T06:06:45;101497.69;;;0.97;90.63
61119;BME280;51448;51.660;5.824;2024-03-08T06:09:16;101497.94;;;0.96;91.08
61119;BME280;51448;51.660;5.824;2024-03-08T06:11:51;101493.31;;;0.96;91.00
61119;BME280;51448;51.660;5.824;2024-03-08T06:14:21;101478.91;;;0.96;91.09
61119;BME280;51448;51.660;5.824;2024-03-08T06:16:50;101477.28;;;0.95;90.84
61119;BME280;51448;51.660;5.824;2024-03-08T06:19:18;101484.59;;;0.94;91.01
61119;BME280;51448;51.660;5.824;2024-03-08T06:21:46;101487.88;;;0.96;90.86
61119;BME280;51448;51.660;5.824;2024-03-08T06:24:13;101475.94;;;0.97;91.09
61119;BME280;51448;51.660;5.824;2024-03-08T06:26:42;101479.75;;;0.96;91.18
61119;BME280;51448;51.660;5.824;2024-03-08T06:29:10;101481.38;;;0.97;90.97
61119;BME280;51448;51.660;5.824;2024-03-08T06:31:37;101483.06;;;0.98;91.54
61119;BME280;51448;51.660;5.824;2024-03-08T06:34:06;101475.94;;;0.97;91.21
61119;BME280;51448;51.660;5.824;2024-03-08T06:36:36;101469.69;;;0.97;91.03
61119;BME280;51448;51.660;5.824;2024-03-08T06:39:05;101468.41;;;0.99;91.40
61119;BME280;51448;51.660;5.824;2024-03-08T06:41:37;101467.91;;;1.02;91.41
61119;BME280;51448;51.660;5.824;2024-03-08T06:44:05;101468.50;;;1.04;91.28
61119;BME280;51448;51.660;5.824;2024-03-08T06:46:35;101467.44;;;1.05;91.44
61119;BME280;51448;51.660;5.824;2024-03-08T06:49:03;101460.94;;;1.07;91.34
61119;BME280;51448;51.660;5.824;2024-03-08T06:51:31;101468.63;;;1.10;91.26
61119;BME280;51448;51.660;5.824;2024-03-08T06:53:59;101453.44;;;1.14;91.47
61119;BME280;51448;51.660;5.824;2024-03-08T06:56:27;101461.72;;;1.19;91.33
61119;BME280;51448;51.660;5.824;2024-03-08T06:58:55;101456.16;;;1.25;91.38
61119;BME280;51448;51.660;5.824;2024-03-08T07:01:22;101459.78;;;1.31;91.67
61119;BME280;51448;51.660;5.824;2024-03-08T07:03:50;101459.66;;;1.38;91.66
61119;BME280;51448;51.660;5.824;2024-03-08T07:06:22;101455.69;;;1.45;91.42
61119;BME280;51448;51.660;5.824;2024-03-08T07:08:49;101460.75;;;1.53;91.06
61119;BME280;51448;51.660;5.824;2024-03-08T07:11:17;101454.44;;;1.65;91.02
61119;BME280;51448;51.660;5.824;2024-03-08T07:13:46;101459.47;;;1.73;90.90
61119;BME280;51448;51.660;5.824;2024-03-08T07:16:13;101455.53;;;1.80;90.56
61119;BME280;51448;51.660;5.824;2024-03-08T07:18:41;101457.00;;;1.88;90.13
61119;BME280;51448;51.660;5.824;2024-03-08T07:21:11;101452.47;;;1.94;90.00
61119;BME280;51448;51.660;5.824;2024-03-08T07:23:38;101455.84;;;2.01;90.22
61119;BME280;51448;51.660;5.824;2024-03-08T07:26:25;101443.13;;;2.06;89.81
61119;BME280;51448;51.660;5.824;2024-03-08T07:28:53;101443.81;;;2.14;89.78
61119;BME280;51448;51.660;5.824;2024-03-08T07:31:24;101444.47;;;2.21;89.51
61119;BME280;51448;51.660;5.824;2024-03-08T07:34:11;101438.63;;;2.29;89.04
61119;BME280;51448;51.660;5.824;2024-03-08T07:36:39;101434.28;;;2.33;89.14
61119;BME280;51448;51.660;5.824;2024-03-08T07:39:07;101441.22;;;2.41;89.14
61119;BME280;51448;51.660;5.824;2024-03-08T07:41:42;101442.69;;;2.48;89.15
61119;BME280;51448;51.660;5.824;2024-03-08T07:44:09;101433.28;;;2.56;88.41
61119;BME280;51448;51.660;5.824;2024-03-08T07:46:37;101439.38;;;2.63;88.26
61119;BME280;51448;51.660;5.824;2024-03-08T07:49:05;101427.72;;;2.68;87.89
61119;BME280;51448;51.660;5.824;2024-03-08T07:51:33;101428.84;;;2.72;87.64
61119;BME280;51448;51.660;5.824;2024-03-08T07:54:02;101426.19;;;2.77;87.57
61119;BME280;51448;51.660;5.824;2024-03-08T07:56:32;101421.06;;;2.80;87.32
61119;BME280;51448;51.660;5.824;2024-03-08T07:58:59;101423.84;;;2.85;86.89
61119;BME280;51448;51.660;5.824;2024-03-08T08:01:27;101410.03;;;2.92;86.53
61119;BME280;51448;51.660;5.824;2024-03-08T08:03:55;101413.06;;;2.96;86.53
61119;BME280;51448;51.660;5.824;2024-03-08T08:06:23;101414.78;;;3.02;86.90
61119;BME280;51448;51.660;5.824;2024-03-08T08:08:53;101411.03;;;3.08;86.79
61119;BME280;51448;51.660;5.824;2024-03-08T08:11:20;101401.06;;;3.19;86.12
61119;BME280;51448;51.660;5.824;2024-03-08T08:13:48;101397.84;;;3.22;85.62
61119;BME280;51448;51.660;5.824;2024-03-08T08:16:16;101405.81;;;3.28;85.53
61119;BME280;51448;51.660;5.824;2024-03-08T08:18:43;101393.31;;;3.32;85.71
61119;BME280;51448;51.660;5.824;2024-03-08T08:21:13;101401.53;;;3.37;85.70
61119;BME280;51448;51.660;5.824;2024-03-08T08:23:41;101381.16;;;3.45;85.89
61119;BME280;51448;51.660;5.824;2024-03-08T08:26:10;101380.09;;;3.51;85.67
61119;BME280;51448;51.660;5.824;2024-03-08T08:28:39;101377.47;;;3.61;85.30
61119;BME280;51448;51.660;5.824;2024-03-08T08:31:08;101375.91;;;3.71;84.56
61119;BME280;51448;51.660;5.824;2024-03-08T08:33:36;101371.31;;;3.76;84.10
61119;BME280;51448;51.660;5.824;2024-03-08T08:36:04;101371.09;;;3.83;84.11
61119;BME280;51448;51.660;5.824;2024-03-08T08:38:32;101371.44;;;3.91;84.03
61119;BME280;51448;51.660;5.824;2024-03-08T08:41:00;101364.41;;;4.01;83.99
61119;BME280;51448;51.660;5.824;2024-03-08T08:43:29;101365.56;;;4.10;83.76
61119;BME280;51448;51.660;5.824;2024-03-08T08:45:57;101360.97;;;4.20;83.72
61119;BME280;51448;51.660;5.824;2024-03-08T08:48:25;101357.50;;;4.30;83.61
61119;BME280;51448;51.660;5.824;2024-03-08T08:50:52;101359.75;;;4.43;83.42
61119;BME280;51448;51.660;5.824;2024-03-08T08:53:20;101352.41;;;4.54;83.64
61119;BME280;51448;51.660;5.824;2024-03-08T08:55:49;101348.66;;;4.70;83.31
61119;BME280;51448;51.660;5.824;2024-03-08T08:58:16;101344.03;;;4.81;83.51
61119;BME280;51448;51.660;5.824;2024-03-08T09:00:45;101342.72;;;4.94;82.59
61119;BME280;51448;51.660;5.824;2024-03-08T09:03:13;101340.00;;;5.04;82.42
61119;BME280;51448;51.660;5.824;2024-03-08T09:05:41;101331.53;;;5.16;81.70
61119;BME280;51448;51.660;5.824;2024-03-08T09:08:12;101345.53;;;5.24;80.38
61119;BME280;51448;51.660;5.824;2024-03-08T09:10:40;101331.28;;;5.33;80.54
61119;BME280;51448;51.660;5.824;2024-03-08T09:13:08;101334.59;;;5.45;80.91
61119;BME280;51448;51.660;5.824;2024-03-08T09:15:44;101331.03;;;5.60;80.94
61119;BME280;51448;51.660;5.824;2024-03-08T09:18:12;101322.28;;;5.73;79.38
61119;BME280;51448;51.660;5.824;2024-03-08T09:20:40;101324.72;;;5.85;79.85
61119;BME280;51448;51.660;5.824;2024-03-08T09:23:08;101314.88;;;5.99;79.25
61119;BME280;51448;51.660;5.824;2024-03-08T09:25:36;101310.72;;;6.12;78.75
61119;BME280;51448;51.660;5.824;2024-03-08T09:28:04;101309.06;;;6.26;78.04
61119;BME280;51448;51.660;5.824;2024-03-08T09:30:33;101305.19;;;6.37;77.34
61119;BME280;51448;51.660;5.824;2024-03-08T09:33:02;101295.25;;;6.46;76.01
61119;BME280;51448;51.660;5.824;2024-03-08T09:35:30;101292.22;;;6.53;76.88
61119;BME280;51448;51.660;5.824;2024-03-08T09:37:58;101289.97;;;6.65;76.73
61119;BME280;51448;51.660;5.824;2024-03-08T09:40:26;101283.34;;;6.76;75.99
61119;BME280;51448;51.660;5.824;2024-03-08T09:42:55;101290.69;;;6.86;75.70
61119;BME280;51448;51.660;5.824;2024-03-08T09:45:23;101280.75;;;6.95;75.75
61119;BME280;51448;51.660;5.824;2024-03-08T09:47:52;101273.25;;;7.06;74.88
61119;BME280;51448;51.660;5.824;2024-03-08T09:50:22;101271.03;;;7.13;74.17
61119;BME280;51448;51.660;5.824;2024-03-08T09:52:49;101261.06;;;7.22;74.43
61119;BME280;51448;51.660;5.824;2024-03-08T09:55:18;101252.75;;;7.32;74.08
61119;BME280;51448;51.660;5.824;2024-03-08T09:57:52;101250.22;;;7.41;73.02
61119;BME280;51448;51.660;5.824;2024-03-08T10:00:40;101236.41;;;7.51;72.26
61119;BME280;51448;51.660;5.824;2024-03-08T10:03:09;101235.81;;;7.54;72.50
61119;BME280;51448;51.660;5.824;2024-03-08T10:05:41;101226.66;;;7.64;73.09
61119;BME280;51448;51.660;5.824;2024-03-08T10:08:09;101221.56;;;7.76;73.33
61119;BME280;51448;51.660;5.824;2024-03-08T10:10:37;101212.09;;;7.87;71.01
61119;BME280;51448;51.660;5.824;2024-03-08T10:13:09;101215.41;;;7.89;70.17
61119;BME280;51448;51.660;5.824;2024-03-08T10:15:38;101207.41;;;7.88;70.29
61119;BME280;51448;51.660;5.824;2024-03-08T10:18:07;101203.00;;;7.92;70.85
61119;BME280;51448;51.660;5.824;2024-03-08T10:20:34;101189.13;;;8.02;70.01
61119;BME280;51448;51.660;5.824;2024-03-08T10:23:03;101180.53;;;8.09;69.77
61119;BME280;51448;51.660;5.824;2024-03-08T10:25:38;101185.38;;;8.17;69.09
61119;BME280;51448;51.660;5.824;2024-03-08T10:28:06;101183.88;;;8.25;70.20
61119;BME280;51448;51.660;5.824;2024-03-08T10:30:49;101179.06;;;8.35;71.09
61119;BME280;51448;51.660;5.824;2024-03-08T10:33:16;101170.41;;;8.47;70.44
61119;BME280;51448;51.660;5.824;2024-03-08T10:35:45;101178.59;;;8.52;66.85
61119;BME280;51448;51.660;5.824;2024-03-08T10:38:15;101166.69;;;8.57;66.36
61119;BME280;51448;51.660;5.824;2024-03-08T10:40:48;101171.63;;;8.60;64.75
61119;BME280;51448;51.660;5.824;2024-03-08T10:43:23;101157.25;;;8.63;64.34
61119;BME280;51448;51.660;5.824;2024-03-08T10:46:24;101159.72;;;8.64;64.35
61119;BME280;51448;51.660;5.824;2024-03-08T10:49:06;101157.72;;;8.70;66.16
61119;BME280;51448;51.660;5.824;2024-03-08T10:51:45;101150.63;;;8.83;64.78
61119;BME280;51448;51.660;5.824;2024-03-08T10:54:14;101151.34;;;8.88;64.40
61119;BME280;51448;51.660;5.824;2024-03-08T10:56:43;101136.97;;;8.91;64.15
61119;BME280;51448;51.660;5.824;2024-03-08T10:59:11;101155.06;;;8.98;63.86
61119;BME280;51448;51.660;5.824;2024-03-08T11:01:41;101143.97;;;9.03;64.94
61119;BME280;51448;51.660;5.824;2024-03-08T11:04:09;101138.25;;;9.13;63.93
61119;BME280;51448;51.660;5.824;2024-03-08T11:09:11;101128.81;;;9.33;63.12
61119;BME280;51448;51.660;5.824;2024-03-08T11:14:59;101123.44;;;9.41;61.96
61119;BME280;51448;51.660;5.824;2024-03-08T11:19:56;101117.44;;;9.53;63.04
61119;BME280;51448;51.660;5.824;2024-03-08T11:22:29;101105.91;;;9.65;62.08
61119;BME280;51448;51.660;5.824;2024-03-08T11:25:05;101102.53;;;9.68;61.55
61119;BME280;51448;51.660;5.824;2024-03-08T11:27:38;101095.25;;;9.72;61.53
61119;BME280;51448;51.660;5.824;2024-03-08T11:30:07;101094.34;;;9.77;61.37
61119;BME280;51448;51.660;5.824;2024-03-08T11:32:45;101080.97;;;9.84;61.99
61119;BME280;51448;51.660;5.824;2024-03-08T11:35:20;101073.59;;;9.93;61.30
61119;BME280;51448;51.660;5.824;2024-03-08T11:37:50;101071.75;;;10.02;61.24
61119;BME280;51448;51.660;5.824;2024-03-08T11:40:19;101068.25;;;10.10;59.77
61119;BME280;51448;51.660;5.824;2024-03-08T11:42:48;101061.31;;;10.13;59.32
61119;BME280;51448;51.660;5.824;2024-03-08T11:45:16;101062.00;;;10.18;59.57
61119;BME280;51448;51.660;5.824;2024-03-08T11:47:45;101056.81;;;10.17;57.24
61119;BME280;51448;51.660;5.824;2024-03-08T11:50:14;101059.56;;;10.17;57.81
61119;BME280;51448;51.660;5.824;2024-03-08T11:52:43;101051.31;;;10.17;58.40
61119;BME280;51448;51.660;5.824;2024-03-08T11:55:11;101056.19;;;10.20;57.63
61119;BME280;51448;51.660;5.824;2024-03-08T11:57:40;101047.59;;;10.21;57.92
61119;BME280;51448;51.660;5.824;2024-03-08T12:00:19;101054.47;;;10.24;57.51
61119;BME280;51448;51.660;5.824;2024-03-08T12:03:02;101040.88;;;10.27;57.17
61119;BME280;51448;51.660;5.824;2024-03-08T12:05:33;101043.31;;;10.29;57.01
61119;BME280;51448;51.660;5.824;2024-03-08T12:08:04;101038.94;;;10.28;56.64
61119;BME280;51448;51.660;5.824;2024-03-08T12:10:34;101042.19;;;10.30;58.17
61119;BME280;51448;51.660;5.824;2024-03-08T12:13:03;101030.25;;;10.43;57.05
61119;BME280;51448;51.660;5.824;2024-03-08T12:15:33;101024.44;;;10.45;55.64
61119;BME280;51448;51.660;5.824;2024-03-08T12:18:01;101015.38;;;10.44;57.02
61119;BME280;51448;51.660;5.824;2024-03-08T12:20:32;101019.28;;;10.52;56.67
61119;BME280;51448;51.660;5.824;2024-03-08T12:23:00;101019.97;;;10.58;56.03
61119;BME280;51448;51.660;5.824;2024-03-08T12:25:31;101021.31;;;10.60;55.09
61119;BME280;51448;51.660;5.824;2024-03-08T12:28:09;101011.69;;;10.58;55.51
61119;BME280;51448;51.660;5.824;2024-03-08T12:30:49;101005.25;;;10.62;56.11
61119;BME280;51448;51.660;5.824;2024-03-08T12:33:22;100994.06;;;10.67;56.29
61119;BME280;51448;51.660;5.824;2024-03-08T12:35:51;100992.47;;;10.75;55.72
61119;BME280;51448;51.660;5.824;2024-03-08T12:38:24;100985.81;;;10.76;55.62
61119;BME280;51448;51.660;5.824;2024-03-08T12:40:59;100995.28;;;10.84;56.01
61119;BME280;51448;51.660;5.824;2024-03-08T12:43:27;100983.94;;;10.85;55.55
61119;BME280;51448;51.660;5.824;2024-03-08T12:45:58;100985.25;;;10.88;54.46
61119;BME280;51448;51.660;5.824;2024-03-08T12:48:26;100975.31;;;10.87;55.13
61119;BME280;51448;51.660;5.824;2024-03-08T12:50:54;100970.59;;;10.87;55.66
61119;BME280;51448;51.660;5.824;2024-03-08T12:53:22;100961.88;;;10.94;55.07
61119;BME280;51448;51.660;5.824;2024-03-08T12:55:51;100949.25;;;11.01;55.13
61119;BME280;51448;51.660;5.824;2024-03-08T12:58:19;100953.31;;;11.04;54.26
61119;BME280;51448;51.660;5.824;2024-03-08T13:00:47;100952.47;;;11.03;55.70
61119;BME280;51448;51.660;5.824;2024-03-08T13:03:20;100941.16;;;11.14;55.14
61119;BME280;51448;51.660;5.824;2024-03-08T13:05:50;100941.00;;;11.19;54.06
61119;BME280;51448;51.660;5.824;2024-03-08T13:08:18;100932.72;;;11.19;53.70
61119;BME280;51448;51.660;5.824;2024-03-08T13:10:46;100931.75;;;11.15;52.84
61119;BME280;51448;51.660;5.824;2024-03-08T13:13:14;100927.19;;;11.10;54.41
61119;BME280;51448;51.660;5.824;2024-03-08T13:15:45;100926.03;;;11.20;55.48
61119;BME280;51448;51.660;5.824;2024-03-08T13:18:16;100913.22;;;11.24;54.20